NKS1509 KLGA-KDTW
Flight info
| Callsign | NKS1509 |
|---|---|
| Flight time | 1h 24m |
| Altitude | FL360 |
| Route | GAYEL J95 CFB TRAAD JACCI FERRL2 |
| Aircraft | A21N/M-SDE2E3FGHIRWXY/LB1 |
Departure
| Time | 2026-05-07 22:19 |
|---|---|
| Airport | LaGuardia Airport (KLGA) |
Arrival
| Time | 2026-05-07 23:43 |
|---|---|
| Airport | Detroit Metropolitan Wayne County Airport (KDTW) |
| Time | Latitude | Longitude | Altitude | Speed | Heading |
|---|---|---|---|---|---|
| 2026-05-07 21:50 | 40.77329 | -73.88380 | -6 ft | 0 kts | 6° |
| 2026-05-07 22:06 | 40.77328 | -73.88380 | -4 ft | 2 kts | 6° |
| 2026-05-07 22:06 | 40.77315 | -73.88382 | -4 ft | 2 kts | 5° |
| 2026-05-07 22:06 | 40.77307 | -73.88382 | -4 ft | 2 kts | 356° |
| 2026-05-07 22:07 | 40.77299 | -73.88381 | -4 ft | 2 kts | 351° |
| 2026-05-07 22:07 | 40.77286 | -73.88381 | -4 ft | 2 kts | 15° |
| 2026-05-07 22:07 | 40.77277 | -73.88386 | -4 ft | 2 kts | 27° |
| 2026-05-07 22:07 | 40.77267 | -73.88394 | -4 ft | 2 kts | 43° |
| 2026-05-07 22:08 | 40.77261 | -73.88402 | -4 ft | 1 kts | 47° |
| 2026-05-07 22:08 | 40.77260 | -73.88405 | -4 ft | 0 kts | 46° |
| 2026-05-07 22:08 | 40.77260 | -73.88404 | -4 ft | 0 kts | 46° |
| 2026-05-07 22:11 | 40.77265 | -73.88397 | -4 ft | 4 kts | 48° |
| 2026-05-07 22:11 | 40.77274 | -73.88373 | -4 ft | 7 kts | 72° |
| 2026-05-07 22:12 | 40.77280 | -73.88334 | -4 ft | 9 kts | 84° |
| 2026-05-07 22:12 | 40.77275 | -73.88308 | -4 ft | 3 kts | 147° |
| 2026-05-07 22:12 | 40.77253 | -73.88305 | -3 ft | 6 kts | 178° |
| 2026-05-07 22:12 | 40.77231 | -73.88310 | -3 ft | 6 kts | 203° |
| 2026-05-07 22:13 | 40.77210 | -73.88327 | -2 ft | 6 kts | 213° |
| 2026-05-07 22:13 | 40.77189 | -73.88345 | -2 ft | 6 kts | 213° |
| 2026-05-07 22:13 | 40.77166 | -73.88365 | -1 ft | 7 kts | 213° |
| 2026-05-07 22:13 | 40.77143 | -73.88385 | -1 ft | 7 kts | 213° |
| 2026-05-07 22:14 | 40.77113 | -73.88407 | -1 ft | 8 kts | 208° |
| 2026-05-07 22:14 | 40.77082 | -73.88429 | -1 ft | 9 kts | 206° |
| 2026-05-07 22:14 | 40.77048 | -73.88446 | -1 ft | 9 kts | 194° |
| 2026-05-07 22:14 | 40.77026 | -73.88451 | -1 ft | 3 kts | 185° |
| 2026-05-07 22:15 | 40.77024 | -73.88451 | -1 ft | 0 kts | 184° |
| 2026-05-07 22:16 | 40.77017 | -73.88452 | -1 ft | 3 kts | 184° |
| 2026-05-07 22:16 | 40.77000 | -73.88453 | -1 ft | 4 kts | 184° |
| 2026-05-07 22:17 | 40.76978 | -73.88455 | -1 ft | 5 kts | 176° |
| 2026-05-07 22:17 | 40.76958 | -73.88446 | 0 ft | 4 kts | 152° |
| 2026-05-07 22:17 | 40.76943 | -73.88427 | 1 ft | 4 kts | 118° |
| 2026-05-07 22:17 | 40.76944 | -73.88396 | 0 ft | 6 kts | 62° |
| 2026-05-07 22:18 | 40.76962 | -73.88375 | 0 ft | 2 kts | 34° |
| 2026-05-07 22:18 | 40.77146 | -73.88224 | -1 ft | 70 kts | 32° |
| 2026-05-07 22:18 | 40.77561 | -73.87883 | -1 ft | 122 kts | 31° |
| 2026-05-07 22:19 | 40.78113 | -73.87423 | 22 ft | 157 kts | 27° |
| 2026-05-07 22:19 | 40.78786 | -73.86899 | 391 ft | 159 kts | 22° |
| 2026-05-07 22:19 | 40.79481 | -73.86426 | 949 ft | 153 kts | 12° |
| 2026-05-07 22:19 | 40.80237 | -73.86339 | 1454 ft | 149 kts | 348° |
| 2026-05-07 22:20 | 40.81010 | -73.86580 | 1893 ft | 147 kts | 344° |
| 2026-05-07 22:20 | 40.81801 | -73.86984 | 2115 ft | 157 kts | 321° |
| 2026-05-07 22:20 | 40.82393 | -73.87812 | 2361 ft | 166 kts | 310° |
| 2026-05-07 22:20 | 40.83017 | -73.88612 | 2573 ft | 176 kts | 324° |
| 2026-05-07 22:21 | 40.83838 | -73.89301 | 2814 ft | 187 kts | 329° |
| 2026-05-07 22:21 | 40.84911 | -73.90102 | 3062 ft | 204 kts | 330° |
| 2026-05-07 22:21 | 40.85887 | -73.90834 | 3310 ft | 217 kts | 329° |
| 2026-05-07 22:21 | 40.87125 | -73.91786 | 3629 ft | 233 kts | 329° |
| 2026-05-07 22:22 | 40.87885 | -73.92380 | 3819 ft | 242 kts | 328° |
| 2026-05-07 22:23 | 40.88768 | -73.93077 | 4047 ft | 252 kts | 328° |
| 2026-05-07 22:23 | 40.90100 | -73.94140 | 4562 ft | 258 kts | 328° |
| 2026-05-07 22:23 | 40.91038 | -73.94893 | 4982 ft | 260 kts | 328° |
| 2026-05-07 22:24 | 40.92281 | -73.95895 | 5534 ft | 262 kts | 327° |
| 2026-05-07 22:24 | 40.93740 | -73.97078 | 6182 ft | 265 kts | 327° |
| 2026-05-07 22:24 | 40.95171 | -73.98241 | 6801 ft | 267 kts | 326° |
| 2026-05-07 22:24 | 40.96851 | -73.99603 | 7572 ft | 267 kts | 325° |
| 2026-05-07 22:25 | 40.98250 | -74.00739 | 8226 ft | 267 kts | 324° |
| 2026-05-07 22:25 | 40.99727 | -74.01942 | 8884 ft | 267 kts | 323° |
| 2026-05-07 22:25 | 41.01169 | -74.03121 | 9500 ft | 268 kts | 323° |
| 2026-05-07 22:25 | 41.02395 | -74.04126 | 9995 ft | 269 kts | 322° |
| 2026-05-07 22:26 | 41.03735 | -74.05225 | 10462 ft | 273 kts | 322° |
| 2026-05-07 22:26 | 41.05493 | -74.06676 | 10755 ft | 288 kts | 322° |
| 2026-05-07 22:26 | 41.07156 | -74.08050 | 11049 ft | 302 kts | 322° |
| 2026-05-07 22:26 | 41.09039 | -74.09600 | 11423 ft | 312 kts | 322° |
| 2026-05-07 22:27 | 41.10766 | -74.11011 | 11967 ft | 314 kts | 322° |
| 2026-05-07 22:27 | 41.12460 | -74.12382 | 12528 ft | 316 kts | 321° |
| 2026-05-07 22:27 | 41.14232 | -74.13824 | 13060 ft | 318 kts | 321° |
| 2026-05-07 22:27 | 41.16176 | -74.15414 | 13607 ft | 321 kts | 320° |
| 2026-05-07 22:28 | 41.18211 | -74.17083 | 14125 ft | 325 kts | 320° |
| 2026-05-07 22:28 | 41.20514 | -74.18980 | 14701 ft | 329 kts | 320° |
| 2026-05-07 22:28 | 41.22876 | -74.20929 | 15285 ft | 333 kts | 319° |
| 2026-05-07 22:28 | 41.25037 | -74.22716 | 15795 ft | 336 kts | 319° |
| 2026-05-07 22:29 | 41.27030 | -74.24365 | 16239 ft | 340 kts | 319° |
| 2026-05-07 22:29 | 41.29058 | -74.26047 | 16693 ft | 343 kts | 319° |
| 2026-05-07 22:29 | 41.31067 | -74.27711 | 17140 ft | 345 kts | 319° |
| 2026-05-07 22:29 | 41.33135 | -74.29426 | 17567 ft | 348 kts | 319° |
| 2026-05-07 22:30 | 41.35199 | -74.31135 | 17991 ft | 351 kts | 319° |
| 2026-05-07 22:30 | 41.37278 | -74.32859 | 18373 ft | 354 kts | 319° |
| 2026-05-07 22:30 | 41.39312 | -74.34706 | 18755 ft | 350 kts | 311° |
| 2026-05-07 22:30 | 41.41045 | -74.36974 | 19171 ft | 341 kts | 301° |
| 2026-05-07 22:31 | 41.42390 | -74.39538 | 19605 ft | 334 kts | 293° |
| 2026-05-07 22:31 | 41.43556 | -74.42203 | 20020 ft | 334 kts | 291° |
| 2026-05-07 22:31 | 41.44707 | -74.44898 | 20422 ft | 336 kts | 291° |
| 2026-05-07 22:31 | 41.45876 | -74.47637 | 20770 ft | 339 kts | 291° |
| 2026-05-07 22:32 | 41.47061 | -74.50404 | 20912 ft | 347 kts | 292° |
| 2026-05-07 22:32 | 41.48271 | -74.53216 | 21198 ft | 351 kts | 292° |
| 2026-05-07 22:32 | 41.49497 | -74.56049 | 21565 ft | 352 kts | 292° |
| 2026-05-07 22:32 | 41.50740 | -74.58912 | 21908 ft | 354 kts | 292° |
| 2026-05-07 22:33 | 41.51979 | -74.61779 | 22271 ft | 355 kts | 292° |
| 2026-05-07 22:33 | 41.53214 | -74.64640 | 22630 ft | 355 kts | 291° |
| 2026-05-07 22:33 | 41.54450 | -74.67514 | 22964 ft | 357 kts | 291° |
| 2026-05-07 22:33 | 41.55694 | -74.70421 | 23315 ft | 357 kts | 291° |
| 2026-05-07 22:34 | 41.56932 | -74.73314 | 23596 ft | 360 kts | 291° |
| 2026-05-07 22:34 | 41.58181 | -74.76235 | 23787 ft | 365 kts | 291° |
| 2026-05-07 22:34 | 41.59453 | -74.79205 | 24077 ft | 367 kts | 291° |
| 2026-05-07 22:34 | 41.60730 | -74.82177 | 24393 ft | 368 kts | 291° |
| 2026-05-07 22:35 | 41.62019 | -74.85175 | 24689 ft | 369 kts | 291° |
| 2026-05-07 22:35 | 41.63304 | -74.88169 | 24992 ft | 370 kts | 291° |
| 2026-05-07 22:35 | 41.64586 | -74.91170 | 25291 ft | 371 kts | 291° |
| 2026-05-07 22:35 | 41.65886 | -74.94211 | 25591 ft | 372 kts | 291° |
| 2026-05-07 22:36 | 41.67168 | -74.97216 | 25850 ft | 373 kts | 291° |
| 2026-05-07 22:36 | 41.68463 | -75.00261 | 26097 ft | 374 kts | 291° |
| 2026-05-07 22:36 | 41.69736 | -75.03253 | 26368 ft | 375 kts | 291° |
| 2026-05-07 22:36 | 41.71031 | -75.06305 | 26634 ft | 376 kts | 291° |
| 2026-05-07 22:37 | 41.72334 | -75.09369 | 26881 ft | 377 kts | 291° |
| 2026-05-07 22:37 | 41.73625 | -75.12420 | 27110 ft | 378 kts | 291° |
| 2026-05-07 22:37 | 41.74929 | -75.15496 | 27331 ft | 380 kts | 291° |
| 2026-05-07 22:37 | 41.76236 | -75.18590 | 27539 ft | 381 kts | 291° |
| 2026-05-07 22:38 | 41.77554 | -75.21712 | 27761 ft | 382 kts | 291° |
| 2026-05-07 22:38 | 41.78861 | -75.24809 | 27969 ft | 383 kts | 291° |
| 2026-05-07 22:38 | 41.80179 | -75.27941 | 28187 ft | 384 kts | 291° |
| 2026-05-07 22:38 | 41.81495 | -75.31063 | 28406 ft | 385 kts | 291° |
| 2026-05-07 22:39 | 41.82812 | -75.34194 | 28620 ft | 386 kts | 291° |
| 2026-05-07 22:39 | 41.84131 | -75.37332 | 28839 ft | 386 kts | 291° |
| 2026-05-07 22:39 | 41.85446 | -75.40465 | 29158 ft | 384 kts | 291° |
| 2026-05-07 22:39 | 41.86779 | -75.43638 | 29484 ft | 382 kts | 291° |
| 2026-05-07 22:40 | 41.88080 | -75.46754 | 29768 ft | 381 kts | 290° |
| 2026-05-07 22:40 | 41.89366 | -75.49831 | 30066 ft | 379 kts | 290° |
| 2026-05-07 22:40 | 41.90657 | -75.52924 | 30361 ft | 377 kts | 290° |
| 2026-05-07 22:40 | 41.91938 | -75.55995 | 30617 ft | 376 kts | 290° |
| 2026-05-07 22:41 | 41.93212 | -75.59063 | 30820 ft | 376 kts | 291° |
| 2026-05-07 22:41 | 41.94493 | -75.62133 | 31036 ft | 376 kts | 290° |
| 2026-05-07 22:41 | 41.95782 | -75.65219 | 31251 ft | 375 kts | 290° |
| 2026-05-07 22:41 | 41.97061 | -75.68297 | 31521 ft | 374 kts | 290° |
| 2026-05-07 22:42 | 41.98327 | -75.71347 | 31785 ft | 373 kts | 290° |
| 2026-05-07 22:42 | 41.99590 | -75.74393 | 32027 ft | 373 kts | 290° |
| 2026-05-07 22:42 | 42.00858 | -75.77454 | 32221 ft | 373 kts | 290° |
| 2026-05-07 22:42 | 42.02148 | -75.80566 | 32407 ft | 373 kts | 290° |
| 2026-05-07 22:43 | 42.03406 | -75.83618 | 32583 ft | 373 kts | 290° |
| 2026-05-07 22:43 | 42.04679 | -75.86697 | 32785 ft | 373 kts | 290° |
| 2026-05-07 22:43 | 42.05943 | -75.89763 | 32953 ft | 373 kts | 290° |
| 2026-05-07 22:43 | 42.07202 | -75.92821 | 33113 ft | 373 kts | 290° |
| 2026-05-07 22:44 | 42.08460 | -75.95876 | 33290 ft | 373 kts | 290° |
| 2026-05-07 22:44 | 42.09720 | -75.98942 | 33424 ft | 374 kts | 291° |
| 2026-05-07 22:44 | 42.10991 | -76.02024 | 33561 ft | 375 kts | 291° |
| 2026-05-07 22:44 | 42.12214 | -76.05138 | 33731 ft | 372 kts | 288° |
| 2026-05-07 22:45 | 42.13294 | -76.08316 | 33897 ft | 370 kts | 285° |
| 2026-05-07 22:45 | 42.14229 | -76.11533 | 34066 ft | 367 kts | 283° |
| 2026-05-07 22:45 | 42.15030 | -76.14807 | 34197 ft | 365 kts | 280° |
| 2026-05-07 22:45 | 42.15704 | -76.18202 | 34308 ft | 365 kts | 278° |
| 2026-05-07 22:46 | 42.16224 | -76.21540 | 34411 ft | 364 kts | 275° |
| 2026-05-07 22:46 | 42.16609 | -76.24907 | 34529 ft | 363 kts | 273° |
| 2026-05-07 22:46 | 42.16892 | -76.28313 | 34641 ft | 364 kts | 272° |
| 2026-05-07 22:46 | 42.17164 | -76.31721 | 34751 ft | 364 kts | 272° |
| 2026-05-07 22:47 | 42.17432 | -76.35127 | 34853 ft | 365 kts | 272° |
| 2026-05-07 22:47 | 42.17959 | -76.41990 | 35041 ft | 367 kts | 272° |
| 2026-05-07 22:47 | 42.18228 | -76.45480 | 35155 ft | 368 kts | 272° |
| 2026-05-07 22:48 | 42.18485 | -76.48908 | 35239 ft | 369 kts | 272° |
| 2026-05-07 22:48 | 42.19008 | -76.55853 | 35421 ft | 370 kts | 272° |
| 2026-05-07 22:49 | 42.19523 | -76.62793 | 35571 ft | 372 kts | 272° |
| 2026-05-07 22:49 | 42.20034 | -76.69732 | 35737 ft | 374 kts | 271° |
| 2026-05-07 22:50 | 42.20546 | -76.76744 | 35852 ft | 375 kts | 272° |
| 2026-05-07 22:50 | 42.21056 | -76.83800 | 35871 ft | 375 kts | 272° |
| 2026-05-07 22:51 | 42.21561 | -76.90842 | 35867 ft | 377 kts | 272° |
| 2026-05-07 22:51 | 42.22059 | -76.97881 | 35860 ft | 376 kts | 272° |
| 2026-05-07 22:52 | 42.22556 | -77.04935 | 35843 ft | 375 kts | 272° |
| 2026-05-07 22:52 | 42.23049 | -77.11975 | 35846 ft | 377 kts | 272° |
| 2026-05-07 22:53 | 42.23536 | -77.19024 | 35840 ft | 376 kts | 272° |
| 2026-05-07 22:53 | 42.24017 | -77.26084 | 35850 ft | 377 kts | 272° |
| 2026-05-07 22:54 | 42.24498 | -77.33244 | 35857 ft | 376 kts | 272° |
| 2026-05-07 22:54 | 42.24967 | -77.40317 | 35861 ft | 377 kts | 272° |
| 2026-05-07 22:55 | 42.25447 | -77.47380 | 35865 ft | 377 kts | 273° |
| 2026-05-07 22:55 | 42.26271 | -77.54434 | 35862 ft | 380 kts | 278° |
| 2026-05-07 22:56 | 42.27484 | -77.61411 | 35856 ft | 381 kts | 279° |
| 2026-05-07 22:56 | 42.28729 | -77.68354 | 35851 ft | 380 kts | 279° |
| 2026-05-07 22:57 | 42.29974 | -77.75310 | 35851 ft | 380 kts | 279° |
| 2026-05-07 22:57 | 42.31225 | -77.82314 | 35851 ft | 382 kts | 279° |
| 2026-05-07 22:58 | 42.32470 | -77.89297 | 35851 ft | 381 kts | 279° |
| 2026-05-07 22:58 | 42.33702 | -77.96233 | 35853 ft | 375 kts | 279° |
| 2026-05-07 22:59 | 42.34919 | -78.03103 | 35849 ft | 375 kts | 279° |
| 2026-05-07 22:59 | 42.36128 | -78.09981 | 35859 ft | 375 kts | 279° |
| 2026-05-07 23:00 | 42.37331 | -78.16809 | 35858 ft | 375 kts | 279° |
| 2026-05-07 23:00 | 42.38517 | -78.23608 | 35858 ft | 375 kts | 279° |
| 2026-05-07 23:01 | 42.39711 | -78.30470 | 35854 ft | 376 kts | 279° |
| 2026-05-07 23:01 | 42.40902 | -78.37321 | 35862 ft | 376 kts | 279° |
| 2026-05-07 23:02 | 42.42103 | -78.44290 | 35861 ft | 381 kts | 279° |
| 2026-05-07 23:02 | 42.43315 | -78.51338 | 35860 ft | 383 kts | 279° |
| 2026-05-07 23:03 | 42.44517 | -78.58372 | 35866 ft | 384 kts | 279° |
| 2026-05-07 23:03 | 42.45720 | -78.65411 | 35871 ft | 385 kts | 279° |
| 2026-05-07 23:04 | 42.46718 | -78.72499 | 35868 ft | 384 kts | 275° |
| 2026-05-07 23:04 | 42.47220 | -78.79676 | 35877 ft | 382 kts | 271° |
| 2026-05-07 23:05 | 42.47478 | -78.86857 | 35878 ft | 382 kts | 270° |
| 2026-05-07 23:05 | 42.47718 | -78.94023 | 35885 ft | 382 kts | 271° |
| 2026-05-07 23:06 | 42.47956 | -79.01261 | 35889 ft | 383 kts | 271° |
| 2026-05-07 23:06 | 42.48185 | -79.08456 | 35894 ft | 382 kts | 271° |
| 2026-05-07 23:07 | 42.48408 | -79.15681 | 35899 ft | 383 kts | 271° |
| 2026-05-07 23:07 | 42.48631 | -79.22926 | 35909 ft | 383 kts | 271° |
| 2026-05-07 23:08 | 42.48845 | -79.30198 | 35910 ft | 382 kts | 271° |
| 2026-05-07 23:08 | 42.49058 | -79.37427 | 35914 ft | 383 kts | 271° |
| 2026-05-07 23:09 | 42.49262 | -79.44635 | 35910 ft | 382 kts | 271° |
| 2026-05-07 23:09 | 42.49462 | -79.51889 | 35907 ft | 382 kts | 271° |
| 2026-05-07 23:10 | 42.49660 | -79.59140 | 35903 ft | 382 kts | 271° |
| 2026-05-07 23:10 | 42.49854 | -79.66396 | 35902 ft | 383 kts | 270° |
| 2026-05-07 23:11 | 42.50040 | -79.73655 | 35906 ft | 383 kts | 270° |
| 2026-05-07 23:11 | 42.50223 | -79.80923 | 35905 ft | 382 kts | 271° |
| 2026-05-07 23:12 | 42.50402 | -79.88158 | 35905 ft | 383 kts | 271° |
| 2026-05-07 23:12 | 42.50576 | -79.95429 | 35906 ft | 382 kts | 271° |
| 2026-05-07 23:13 | 42.50747 | -80.02683 | 35911 ft | 382 kts | 271° |
| 2026-05-07 23:13 | 42.50909 | -80.09933 | 35917 ft | 381 kts | 271° |
| 2026-05-07 23:14 | 42.51070 | -80.17154 | 35914 ft | 382 kts | 271° |
| 2026-05-07 23:14 | 42.51225 | -80.24416 | 35918 ft | 382 kts | 271° |
| 2026-05-07 23:15 | 42.51375 | -80.31673 | 35918 ft | 382 kts | 271° |
| 2026-05-07 23:15 | 42.51519 | -80.38933 | 35915 ft | 382 kts | 271° |
| 2026-05-07 23:16 | 42.51657 | -80.46171 | 35922 ft | 382 kts | 271° |
| 2026-05-07 23:16 | 42.51789 | -80.53436 | 35922 ft | 382 kts | 271° |
| 2026-05-07 23:17 | 42.51919 | -80.60649 | 35916 ft | 383 kts | 271° |
| 2026-05-07 23:17 | 42.52008 | -80.66675 | 35920 ft | 383 kts | 270° |
| 2026-05-07 23:17 | 42.52062 | -80.71500 | 35763 ft | 383 kts | 270° |
| 2026-05-07 23:18 | 42.52100 | -80.75101 | 35329 ft | 381 kts | 270° |
| 2026-05-07 23:18 | 42.52139 | -80.78719 | 34772 ft | 381 kts | 270° |
| 2026-05-07 23:18 | 42.52173 | -80.82296 | 34163 ft | 382 kts | 270° |
| 2026-05-07 23:18 | 42.52207 | -80.85902 | 33526 ft | 384 kts | 270° |
| 2026-05-07 23:19 | 42.52239 | -80.89510 | 32887 ft | 386 kts | 270° |
| 2026-05-07 23:19 | 42.52271 | -80.93154 | 32237 ft | 388 kts | 270° |
| 2026-05-07 23:19 | 42.52301 | -80.96802 | 31556 ft | 391 kts | 270° |
| 2026-05-07 23:19 | 42.52330 | -81.00525 | 30849 ft | 393 kts | 270° |
| 2026-05-07 23:20 | 42.52359 | -81.04264 | 30131 ft | 395 kts | 270° |
| 2026-05-07 23:20 | 42.52384 | -81.08013 | 29452 ft | 398 kts | 270° |
| 2026-05-07 23:20 | 42.52409 | -81.11765 | 28758 ft | 401 kts | 270° |
| 2026-05-07 23:20 | 42.52432 | -81.15543 | 28111 ft | 401 kts | 270° |
| 2026-05-07 23:21 | 42.52454 | -81.19294 | 27588 ft | 397 kts | 270° |
| 2026-05-07 23:21 | 42.52472 | -81.23031 | 27055 ft | 393 kts | 271° |
| 2026-05-07 23:21 | 42.52491 | -81.26727 | 26526 ft | 391 kts | 271° |
| 2026-05-07 23:21 | 42.52511 | -81.30409 | 26098 ft | 384 kts | 271° |
| 2026-05-07 23:22 | 42.52527 | -81.33979 | 25843 ft | 374 kts | 271° |
| 2026-05-07 23:22 | 42.52457 | -81.37480 | 25417 ft | 369 kts | 268° |
| 2026-05-07 23:22 | 42.52253 | -81.40918 | 25034 ft | 363 kts | 266° |
| 2026-05-07 23:22 | 42.52007 | -81.44320 | 24633 ft | 358 kts | 266° |
| 2026-05-07 23:23 | 42.51760 | -81.47662 | 24221 ft | 352 kts | 266° |
| 2026-05-07 23:23 | 42.51514 | -81.50958 | 23772 ft | 347 kts | 266° |
| 2026-05-07 23:23 | 42.51269 | -81.54218 | 23269 ft | 345 kts | 266° |
| 2026-05-07 23:23 | 42.51027 | -81.57450 | 22737 ft | 343 kts | 266° |
| 2026-05-07 23:24 | 42.50784 | -81.60656 | 22196 ft | 341 kts | 266° |
| 2026-05-07 23:24 | 42.50539 | -81.63868 | 21599 ft | 341 kts | 266° |
| 2026-05-07 23:24 | 42.50294 | -81.67054 | 21127 ft | 338 kts | 266° |
| 2026-05-07 23:24 | 42.50052 | -81.70205 | 20688 ft | 335 kts | 266° |
| 2026-05-07 23:25 | 42.49810 | -81.73338 | 20249 ft | 332 kts | 266° |
| 2026-05-07 23:25 | 42.49570 | -81.76448 | 19808 ft | 324 kts | 266° |
| 2026-05-07 23:25 | 42.49338 | -81.79447 | 19428 ft | 317 kts | 266° |
| 2026-05-07 23:25 | 42.49110 | -81.82423 | 19044 ft | 317 kts | 267° |
| 2026-05-07 23:26 | 42.48883 | -81.85389 | 18641 ft | 315 kts | 267° |
| 2026-05-07 23:26 | 42.48655 | -81.88336 | 18269 ft | 312 kts | 267° |
| 2026-05-07 23:26 | 42.48429 | -81.91241 | 17898 ft | 310 kts | 267° |
| 2026-05-07 23:26 | 42.48202 | -81.94132 | 17561 ft | 307 kts | 267° |
| 2026-05-07 23:27 | 42.47750 | -81.99874 | 16836 ft | 302 kts | 267° |
| 2026-05-07 23:27 | 42.47525 | -82.02691 | 16496 ft | 300 kts | 267° |
| 2026-05-07 23:27 | 42.47301 | -82.05504 | 16146 ft | 298 kts | 267° |
| 2026-05-07 23:28 | 42.47078 | -82.08296 | 15775 ft | 297 kts | 266° |
| 2026-05-07 23:28 | 42.46855 | -82.11074 | 15400 ft | 295 kts | 266° |
| 2026-05-07 23:28 | 42.46633 | -82.13818 | 15038 ft | 292 kts | 266° |
| 2026-05-07 23:28 | 42.46410 | -82.16554 | 14699 ft | 290 kts | 266° |
| 2026-05-07 23:29 | 42.46189 | -82.19266 | 14324 ft | 288 kts | 266° |
| 2026-05-07 23:29 | 42.45969 | -82.21961 | 13992 ft | 287 kts | 267° |
| 2026-05-07 23:29 | 42.45749 | -82.24642 | 13624 ft | 285 kts | 266° |
| 2026-05-07 23:29 | 42.45531 | -82.27310 | 13266 ft | 284 kts | 266° |
| 2026-05-07 23:30 | 42.45314 | -82.29964 | 12894 ft | 282 kts | 266° |
| 2026-05-07 23:30 | 42.45087 | -82.32600 | 12531 ft | 282 kts | 265° |
| 2026-05-07 23:30 | 42.44784 | -82.35238 | 12167 ft | 281 kts | 264° |
| 2026-05-07 23:30 | 42.44471 | -82.37864 | 11798 ft | 280 kts | 264° |
| 2026-05-07 23:31 | 42.44158 | -82.40464 | 11431 ft | 279 kts | 264° |
| 2026-05-07 23:31 | 42.43847 | -82.43048 | 11071 ft | 278 kts | 264° |
| 2026-05-07 23:31 | 42.43535 | -82.45616 | 10710 ft | 276 kts | 264° |
| 2026-05-07 23:31 | 42.43226 | -82.48141 | 10333 ft | 267 kts | 264° |
| 2026-05-07 23:32 | 42.42928 | -82.50572 | 10091 ft | 256 kts | 264° |
| 2026-05-07 23:32 | 42.42637 | -82.52959 | 10054 ft | 253 kts | 264° |
| 2026-05-07 23:32 | 42.42350 | -82.55319 | 10015 ft | 253 kts | 264° |
| 2026-05-07 23:32 | 42.42062 | -82.57679 | 9830 ft | 253 kts | 265° |
| 2026-05-07 23:33 | 42.41776 | -82.60022 | 9542 ft | 252 kts | 264° |
| 2026-05-07 23:33 | 42.41490 | -82.62372 | 9118 ft | 252 kts | 264° |
| 2026-05-07 23:33 | 42.41205 | -82.64691 | 8782 ft | 248 kts | 264° |
| 2026-05-07 23:33 | 42.40923 | -82.66989 | 8447 ft | 246 kts | 263° |
| 2026-05-07 23:34 | 42.40640 | -82.69284 | 8140 ft | 247 kts | 263° |
| 2026-05-07 23:34 | 42.40361 | -82.71587 | 7794 ft | 247 kts | 263° |
| 2026-05-07 23:34 | 42.40092 | -82.73886 | 7358 ft | 249 kts | 263° |
| 2026-05-07 23:34 | 42.39834 | -82.76201 | 6947 ft | 249 kts | 263° |
| 2026-05-07 23:35 | 42.39584 | -82.78521 | 6545 ft | 249 kts | 263° |
| 2026-05-07 23:35 | 42.39346 | -82.80841 | 6133 ft | 249 kts | 263° |
| 2026-05-07 23:35 | 42.39114 | -82.83161 | 5733 ft | 249 kts | 263° |
| 2026-05-07 23:35 | 42.38879 | -82.85497 | 5354 ft | 248 kts | 264° |
| 2026-05-07 23:36 | 42.38643 | -82.87794 | 5034 ft | 246 kts | 264° |
| 2026-05-07 23:36 | 42.38406 | -82.90092 | 4988 ft | 248 kts | 263° |
| 2026-05-07 23:36 | 42.38171 | -82.92406 | 4982 ft | 249 kts | 264° |
| 2026-05-07 23:36 | 42.37937 | -82.94720 | 4980 ft | 249 kts | 264° |
| 2026-05-07 23:37 | 42.37710 | -82.97037 | 4978 ft | 249 kts | 266° |
| 2026-05-07 23:37 | 42.37659 | -82.99358 | 4979 ft | 247 kts | 271° |
| 2026-05-07 23:37 | 42.37696 | -83.01701 | 4979 ft | 247 kts | 272° |
| 2026-05-07 23:37 | 42.37741 | -83.04017 | 4980 ft | 247 kts | 271° |
| 2026-05-07 23:38 | 42.37695 | -83.06293 | 4893 ft | 248 kts | 268° |
| 2026-05-07 23:38 | 42.37617 | -83.08594 | 4766 ft | 247 kts | 268° |
| 2026-05-07 23:38 | 42.37539 | -83.10891 | 4619 ft | 246 kts | 268° |
| 2026-05-07 23:38 | 42.37467 | -83.13154 | 4376 ft | 241 kts | 269° |
| 2026-05-07 23:39 | 42.37401 | -83.15338 | 4218 ft | 231 kts | 269° |
| 2026-05-07 23:39 | 42.37339 | -83.17419 | 4164 ft | 218 kts | 269° |
| 2026-05-07 23:39 | 42.37282 | -83.19416 | 4113 ft | 214 kts | 269° |
| 2026-05-07 23:39 | 42.37151 | -83.21412 | 3928 ft | 217 kts | 255° |
| 2026-05-07 23:40 | 42.36388 | -83.23072 | 3739 ft | 222 kts | 224° |
| 2026-05-07 23:40 | 42.35020 | -83.24136 | 3504 ft | 229 kts | 208° |
| 2026-05-07 23:40 | 42.33558 | -83.24998 | 3196 ft | 228 kts | 208° |
| 2026-05-07 23:40 | 42.32133 | -83.25928 | 2890 ft | 223 kts | 212° |
| 2026-05-07 23:41 | 42.30794 | -83.26894 | 2579 ft | 211 kts | 213° |
| 2026-05-07 23:41 | 42.29543 | -83.27824 | 2295 ft | 200 kts | 213° |
| 2026-05-07 23:41 | 42.28365 | -83.28695 | 2122 ft | 184 kts | 213° |
| 2026-05-07 23:41 | 42.27257 | -83.29508 | 1856 ft | 178 kts | 214° |
| 2026-05-07 23:42 | 42.26179 | -83.30303 | 1612 ft | 177 kts | 213° |
| 2026-05-07 23:42 | 42.25117 | -83.31083 | 1398 ft | 165 kts | 213° |
| 2026-05-07 23:42 | 42.24130 | -83.31796 | 1136 ft | 157 kts | 212° |
| 2026-05-07 23:42 | 42.23196 | -83.32472 | 891 ft | 145 kts | 214° |
| 2026-05-07 23:43 | 42.22333 | -83.33137 | 742 ft | 142 kts | 213° |
| 2026-05-07 23:43 | 42.21491 | -83.33749 | 629 ft | 129 kts | 212° |
| 2026-05-07 23:43 | 42.20844 | -83.34238 | 629 ft | 81 kts | 208° |
| 2026-05-07 23:43 | 42.20498 | -83.34490 | 629 ft | 31 kts | 210° |
| 2026-05-07 23:44 | 42.20384 | -83.34575 | 629 ft | 21 kts | 210° |
| 2026-05-07 23:44 | 42.20252 | -83.34674 | 629 ft | 20 kts | 210° |
| 2026-05-07 23:44 | 42.20190 | -83.34795 | 629 ft | 16 kts | 264° |
| 2026-05-07 23:44 | 42.20183 | -83.34946 | 629 ft | 16 kts | 268° |
| 2026-05-07 23:45 | 42.20178 | -83.35103 | 630 ft | 17 kts | 267° |
| 2026-05-07 23:45 | 42.20177 | -83.35259 | 631 ft | 16 kts | 269° |
| 2026-05-07 23:45 | 42.20174 | -83.35412 | 633 ft | 17 kts | 268° |
| 2026-05-07 23:45 | 42.20170 | -83.35579 | 633 ft | 19 kts | 269° |
| 2026-05-07 23:46 | 42.20167 | -83.35760 | 633 ft | 20 kts | 270° |
| 2026-05-07 23:46 | 42.20165 | -83.35953 | 633 ft | 19 kts | 269° |
| 2026-05-07 23:46 | 42.20163 | -83.36107 | 633 ft | 16 kts | 272° |
| 2026-05-07 23:46 | 42.20176 | -83.36256 | 633 ft | 16 kts | 281° |
| 2026-05-07 23:47 | 42.20194 | -83.36370 | 633 ft | 10 kts | 293° |
| 2026-05-07 23:47 | 42.20239 | -83.36406 | 633 ft | 8 kts | 7° |
| 2026-05-07 23:47 | 42.20296 | -83.36390 | 633 ft | 9 kts | 21° |
| 2026-05-07 23:47 | 42.20355 | -83.36349 | 634 ft | 10 kts | 28° |
| 2026-05-07 23:48 | 42.20411 | -83.36308 | 635 ft | 6 kts | 30° |
| 2026-05-07 23:48 | 42.20445 | -83.36282 | 636 ft | 5 kts | 29° |
| 2026-05-07 23:48 | 42.20467 | -83.36246 | 636 ft | 3 kts | 87° |
| 2026-05-07 23:48 | 42.20456 | -83.36209 | 636 ft | 4 kts | 122° |
| 2026-05-07 23:49 | 42.20446 | -83.36187 | 636 ft | 2 kts | 122° |
| 2026-05-07 23:49 | 42.20441 | -83.36177 | 636 ft | 2 kts | 121° |
| 2026-05-07 23:49 | 42.20438 | -83.36169 | 636 ft | 1 kts | 121° |
| 2026-05-07 23:49 | 42.20435 | -83.36164 | 636 ft | 1 kts | 122° |
| 2026-05-07 23:50 | 42.20435 | -83.36163 | 636 ft | 0 kts | 122° |